sensor_id;sensor_type;location;lat;lon;timestamp;pressure;altitude;pressure_sealevel;temperature;humidity
24762;BME280;12865;51.934;10.330;2024-02-16T00:01:40;98846.69;;;12.49;100.00
24762;BME280;12865;51.934;10.330;2024-02-16T00:04:26;98857.41;;;12.57;100.00
24762;BME280;12865;51.934;10.330;2024-02-16T00:07:11;98847.38;;;12.51;100.00
24762;BME280;12865;51.934;10.330;2024-02-16T00:09:57;98849.69;;;12.54;100.00
24762;BME280;12865;51.934;10.330;2024-02-16T00:12:43;98848.03;;;12.53;100.00
24762;BME280;12865;51.934;10.330;2024-02-16T00:15:28;98846.13;;;12.80;100.00
24762;BME280;12865;51.934;10.330;2024-02-16T00:18:14;98846.63;;;12.83;100.00
24762;BME280;12865;51.934;10.330;2024-02-16T00:21:00;98837.81;;;12.99;100.00
24762;BME280;12865;51.934;10.330;2024-02-16T00:23:47;98831.28;;;12.93;100.00
24762;BME280;12865;51.934;10.330;2024-02-16T00:26:32;98820.06;;;12.82;100.00
24762;BME280;12865;51.934;10.330;2024-02-16T00:29:18;98821.41;;;12.94;100.00
24762;BME280;12865;51.934;10.330;2024-02-16T00:32:05;98818.56;;;12.95;100.00
24762;BME280;12865;51.934;10.330;2024-02-16T00:34:51;98814.69;;;12.90;100.00
24762;BME280;12865;51.934;10.330;2024-02-16T00:37:39;98802.53;;;12.95;100.00
24762;BME280;12865;51.934;10.330;2024-02-16T00:40:25;98809.38;;;13.06;100.00
24762;BME280;12865;51.934;10.330;2024-02-16T00:43:11;98789.84;;;13.14;100.00
24762;BME280;12865;51.934;10.330;2024-02-16T00:45:57;98798.91;;;13.29;100.00
24762;BME280;12865;51.934;10.330;2024-02-16T00:48:43;98798.38;;;13.42;99.99
24762;BME280;12865;51.934;10.330;2024-02-16T00:51:29;98814.81;;;13.30;100.00
24762;BME280;12865;51.934;10.330;2024-02-16T00:54:15;98806.09;;;13.20;100.00
24762;BME280;12865;51.934;10.330;2024-02-16T00:57:00;98801.69;;;13.11;100.00
24762;BME280;12865;51.934;10.330;2024-02-16T00:59:48;98801.03;;;13.09;100.00
24762;BME280;12865;51.934;10.330;2024-02-16T01:02:33;98795.88;;;13.16;100.00
24762;BME280;12865;51.934;10.330;2024-02-16T01:05:19;98797.38;;;13.18;100.00
24762;BME280;12865;51.934;10.330;2024-02-16T01:08:05;98788.97;;;13.05;100.00
24762;BME280;12865;51.934;10.330;2024-02-16T01:10:51;98782.94;;;13.11;100.00
24762;BME280;12865;51.934;10.330;2024-02-16T01:13:37;98771.06;;;13.06;100.00
24762;BME280;12865;51.934;10.330;2024-02-16T01:16:22;98768.44;;;13.22;99.42
24762;BME280;12865;51.934;10.330;2024-02-16T01:19:08;98764.25;;;13.19;99.54
24762;BME280;12865;51.934;10.330;2024-02-16T01:21:55;98754.84;;;13.48;95.73
24762;BME280;12865;51.934;10.330;2024-02-16T01:24:43;98760.22;;;13.48;96.06
24762;BME280;12865;51.934;10.330;2024-02-16T01:27:28;98759.72;;;13.52;94.55
24762;BME280;12865;51.934;10.330;2024-02-16T01:30:14;98768.41;;;13.62;93.98
24762;BME280;12865;51.934;10.330;2024-02-16T01:33:00;98758.38;;;13.56;94.45
24762;BME280;12865;51.934;10.330;2024-02-16T01:35:47;98758.84;;;13.60;93.20
24762;BME280;12865;51.934;10.330;2024-02-16T01:38:33;98753.19;;;13.55;94.74
24762;BME280;12865;51.934;10.330;2024-02-16T01:41:19;98749.50;;;13.64;92.86
24762;BME280;12865;51.934;10.330;2024-02-16T01:44:05;98754.19;;;13.54;94.21
24762;BME280;12865;51.934;10.330;2024-02-16T01:46:51;98761.56;;;13.52;94.38
24762;BME280;12865;51.934;10.330;2024-02-16T01:49:36;98746.97;;;13.54;93.85
24762;BME280;12865;51.934;10.330;2024-02-16T01:52:22;98752.00;;;13.73;91.74
24762;BME280;12865;51.934;10.330;2024-02-16T01:55:08;98759.19;;;13.65;93.00
24762;BME280;12865;51.934;10.330;2024-02-16T01:57:57;98750.50;;;13.47;94.50
24762;BME280;12865;51.934;10.330;2024-02-16T02:00:43;98746.50;;;13.51;94.31
24762;BME280;12865;51.934;10.330;2024-02-16T02:03:29;98762.56;;;13.59;94.16
24762;BME280;12865;51.934;10.330;2024-02-16T02:06:15;98761.56;;;13.52;94.91
24762;BME280;12865;51.934;10.330;2024-02-16T02:09:01;98763.06;;;13.54;94.83
24762;BME280;12865;51.934;10.330;2024-02-16T02:11:46;98760.91;;;13.33;96.78
24762;BME280;12865;51.934;10.330;2024-02-16T02:14:32;98754.72;;;13.33;96.66
24762;BME280;12865;51.934;10.330;2024-02-16T02:17:18;98753.88;;;13.32;96.63
24762;BME280;12865;51.934;10.330;2024-02-16T02:20:05;98763.09;;;13.38;95.96
24762;BME280;12865;51.934;10.330;2024-02-16T02:22:54;98757.38;;;13.49;94.48
24762;BME280;12865;51.934;10.330;2024-02-16T02:25:39;98757.53;;;13.40;95.53
24762;BME280;12865;51.934;10.330;2024-02-16T02:28:25;98741.16;;;13.43;95.17
24762;BME280;12865;51.934;10.330;2024-02-16T02:31:11;98752.88;;;13.33;96.25
24762;BME280;12865;51.934;10.330;2024-02-16T02:33:57;98749.72;;;13.30;96.71
24762;BME280;12865;51.934;10.330;2024-02-16T02:36:43;98748.88;;;13.29;97.02
24762;BME280;12865;51.934;10.330;2024-02-16T02:39:29;98742.00;;;13.43;95.45
24762;BME280;12865;51.934;10.330;2024-02-16T02:42:15;98744.16;;;13.40;95.42
24762;BME280;12865;51.934;10.330;2024-02-16T02:45:01;98746.00;;;13.39;95.59
24762;BME280;12865;51.934;10.330;2024-02-16T02:47:47;98729.81;;;13.24;96.31
24762;BME280;12865;51.934;10.330;2024-02-16T02:50:33;98732.47;;;13.16;97.17
24762;BME280;12865;51.934;10.330;2024-02-16T02:53:19;98724.44;;;13.24;95.58
24762;BME280;12865;51.934;10.330;2024-02-16T02:56:05;98720.09;;;13.23;95.81
24762;BME280;12865;51.934;10.330;2024-02-16T02:58:51;98713.38;;;13.27;95.28
24762;BME280;12865;51.934;10.330;2024-02-16T03:01:36;98716.44;;;13.24;94.79
24762;BME280;12865;51.934;10.330;2024-02-16T03:04:22;98709.69;;;13.12;96.00
24762;BME280;12865;51.934;10.330;2024-02-16T03:07:08;98704.84;;;13.08;96.54
24762;BME280;12865;51.934;10.330;2024-02-16T03:09:53;98706.72;;;13.15;95.84
24762;BME280;12865;51.934;10.330;2024-02-16T03:12:39;98712.56;;;13.19;95.72
24762;BME280;12865;51.934;10.330;2024-02-16T03:15:25;98705.03;;;13.22;94.92
24762;BME280;12865;51.934;10.330;2024-02-16T03:18:10;98705.50;;;13.50;91.95
24762;BME280;12865;51.934;10.330;2024-02-16T03:20:57;98697.63;;;13.41;93.36
24762;BME280;12865;51.934;10.330;2024-02-16T03:23:42;98700.31;;;13.41;93.44
24762;BME280;12865;51.934;10.330;2024-02-16T03:26:29;98704.81;;;13.40;93.15
24762;BME280;12865;51.934;10.330;2024-02-16T03:29:14;98714.00;;;13.54;91.73
24762;BME280;12865;51.934;10.330;2024-02-16T03:32:00;98711.97;;;13.64;91.18
24762;BME280;12865;51.934;10.330;2024-02-16T03:34:46;98707.31;;;13.58;91.82
24762;BME280;12865;51.934;10.330;2024-02-16T03:37:32;98707.16;;;13.51;92.53
24762;BME280;12865;51.934;10.330;2024-02-16T03:40:17;98699.81;;;13.45;93.06
24762;BME280;12865;51.934;10.330;2024-02-16T03:43:03;98696.31;;;13.45;93.41
24762;BME280;12865;51.934;10.330;2024-02-16T03:45:49;98691.25;;;13.58;92.35
24762;BME280;12865;51.934;10.330;2024-02-16T03:48:35;98697.44;;;13.58;91.92
24762;BME280;12865;51.934;10.330;2024-02-16T03:51:21;98689.56;;;13.65;91.73
24762;BME280;12865;51.934;10.330;2024-02-16T03:54:07;98690.06;;;13.60;92.58
24762;BME280;12865;51.934;10.330;2024-02-16T03:56:56;98684.53;;;13.54;92.82
24762;BME280;12865;51.934;10.330;2024-02-16T03:59:42;98684.53;;;13.62;92.13
24762;BME280;12865;51.934;10.330;2024-02-16T04:02:32;98683.06;;;13.51;92.96
24762;BME280;12865;51.934;10.330;2024-02-16T04:05:17;98673.84;;;13.54;93.40
24762;BME280;12865;51.934;10.330;2024-02-16T04:08:03;98669.69;;;13.43;93.95
24762;BME280;12865;51.934;10.330;2024-02-16T04:10:50;98673.03;;;13.45;93.26
24762;BME280;12865;51.934;10.330;2024-02-16T04:13:36;98669.53;;;13.45;93.55
24762;BME280;12865;51.934;10.330;2024-02-16T04:16:21;98668.84;;;13.51;92.88
24762;BME280;12865;51.934;10.330;2024-02-16T04:19:10;98669.69;;;13.51;92.56
24762;BME280;12865;51.934;10.330;2024-02-16T04:21:56;98662.78;;;13.57;92.82
24762;BME280;12865;51.934;10.330;2024-02-16T04:24:41;98664.59;;;13.64;91.91
24762;BME280;12865;51.934;10.330;2024-02-16T04:27:27;98671.81;;;13.56;92.61
24762;BME280;12865;51.934;10.330;2024-02-16T04:30:13;98677.50;;;13.53;93.05
24762;BME280;12865;51.934;10.330;2024-02-16T04:32:58;98675.50;;;13.55;93.08
24762;BME280;12865;51.934;10.330;2024-02-16T04:35:44;98669.47;;;13.53;93.21
24762;BME280;12865;51.934;10.330;2024-02-16T04:38:33;98677.34;;;13.54;92.62
24762;BME280;12865;51.934;10.330;2024-02-16T04:41:20;98674.53;;;13.48;94.01
24762;BME280;12865;51.934;10.330;2024-02-16T04:44:06;98681.25;;;13.44;94.17
24762;BME280;12865;51.934;10.330;2024-02-16T04:46:51;98684.56;;;13.46;93.60
24762;BME280;12865;51.934;10.330;2024-02-16T04:49:38;98681.38;;;13.58;92.36
24762;BME280;12865;51.934;10.330;2024-02-16T04:52:23;98679.03;;;13.47;93.19
24762;BME280;12865;51.934;10.330;2024-02-16T04:55:09;98679.72;;;13.49;93.47
24762;BME280;12865;51.934;10.330;2024-02-16T04:57:55;98678.91;;;13.41;94.55
24762;BME280;12865;51.934;10.330;2024-02-16T05:00:41;98675.03;;;13.43;94.34
24762;BME280;12865;51.934;10.330;2024-02-16T05:03:27;98680.72;;;13.40;94.26
24762;BME280;12865;51.934;10.330;2024-02-16T05:06:12;98676.88;;;13.43;94.71
24762;BME280;12865;51.934;10.330;2024-02-16T05:08:58;98669.84;;;13.42;94.53
24762;BME280;12865;51.934;10.330;2024-02-16T05:11:44;98677.56;;;13.45;94.60
24762;BME280;12865;51.934;10.330;2024-02-16T05:14:30;98671.53;;;13.43;94.13
24762;BME280;12865;51.934;10.330;2024-02-16T05:17:16;98679.41;;;13.44;94.60
24762;BME280;12865;51.934;10.330;2024-02-16T05:20:02;98681.56;;;13.41;94.32
24762;BME280;12865;51.934;10.330;2024-02-16T05:22:48;98675.72;;;13.45;94.42
24762;BME280;12865;51.934;10.330;2024-02-16T05:25:34;98674.34;;;13.49;94.28
24762;BME280;12865;51.934;10.330;2024-02-16T05:28:20;98681.25;;;13.44;94.55
24762;BME280;12865;51.934;10.330;2024-02-16T05:31:16;98663.34;;;13.36;95.79
24762;BME280;12865;51.934;10.330;2024-02-16T05:34:03;98666.56;;;13.23;96.89
24762;BME280;12865;51.934;10.330;2024-02-16T05:36:49;98672.59;;;13.17;97.60
24762;BME280;12865;51.934;10.330;2024-02-16T05:39:38;98674.91;;;13.20;97.92
24762;BME280;12865;51.934;10.330;2024-02-16T05:42:39;98670.94;;;13.16;98.35
24762;BME280;12865;51.934;10.330;2024-02-16T05:45:25;98663.53;;;13.26;97.45
24762;BME280;12865;51.934;10.330;2024-02-16T05:48:14;98669.72;;;13.27;97.61
24762;BME280;12865;51.934;10.330;2024-02-16T05:51:00;98668.56;;;13.13;99.08
24762;BME280;12865;51.934;10.330;2024-02-16T05:53:46;98682.78;;;13.30;97.79
24762;BME280;12865;51.934;10.330;2024-02-16T05:56:32;98670.91;;;13.24;97.96
24762;BME280;12865;51.934;10.330;2024-02-16T05:59:19;98672.59;;;13.17;98.95
24762;BME280;12865;51.934;10.330;2024-02-16T06:02:05;98670.94;;;13.16;99.18
24762;BME280;12865;51.934;10.330;2024-02-16T06:04:54;98675.59;;;13.14;100.00
24762;BME280;12865;51.934;10.330;2024-02-16T06:07:40;98676.28;;;13.16;99.80
24762;BME280;12865;51.934;10.330;2024-02-16T06:10:26;98677.97;;;13.17;99.67
24762;BME280;12865;51.934;10.330;2024-02-16T06:13:12;98682.13;;;13.20;99.53
24762;BME280;12865;51.934;10.330;2024-02-16T06:15:57;98680.13;;;13.22;99.50
24762;BME280;12865;51.934;10.330;2024-02-16T06:18:43;98690.94;;;13.12;100.00
24762;BME280;12865;51.934;10.330;2024-02-16T06:21:29;98684.63;;;13.21;99.59
24762;BME280;12865;51.934;10.330;2024-02-16T06:24:14;98688.97;;;13.14;100.00
24762;BME280;12865;51.934;10.330;2024-02-16T06:27:00;98702.53;;;13.13;100.00
24762;BME280;12865;51.934;10.330;2024-02-16T06:29:46;98708.41;;;13.24;99.29
24762;BME280;12865;51.934;10.330;2024-02-16T06:32:31;98708.03;;;13.19;100.00
24762;BME280;12865;51.934;10.330;2024-02-16T06:35:17;98704.03;;;13.15;100.00
24762;BME280;12865;51.934;10.330;2024-02-16T06:38:03;98709.72;;;13.20;99.48
24762;BME280;12865;51.934;10.330;2024-02-16T06:40:49;98699.97;;;13.11;100.00
24762;BME280;12865;51.934;10.330;2024-02-16T06:43:34;98700.66;;;13.05;100.00
24762;BME280;12865;51.934;10.330;2024-02-16T06:46:20;98688.31;;;12.96;100.00
24762;BME280;12865;51.934;10.330;2024-02-16T06:49:06;98692.97;;;13.02;100.00
24762;BME280;12865;51.934;10.330;2024-02-16T06:51:51;98692.31;;;13.00;100.00
24762;BME280;12865;51.934;10.330;2024-02-16T06:54:38;98684.75;;;13.12;99.44
24762;BME280;12865;51.934;10.330;2024-02-16T06:57:23;98698.34;;;13.10;100.00
24762;BME280;12865;51.934;10.330;2024-02-16T07:00:11;98706.03;;;13.21;98.90
24762;BME280;12865;51.934;10.330;2024-02-16T07:02:57;98703.53;;;13.20;99.19
24762;BME280;12865;51.934;10.330;2024-02-16T07:05:42;98707.19;;;13.19;99.55
24762;BME280;12865;51.934;10.330;2024-02-16T07:08:28;98713.75;;;13.16;99.72
24762;BME280;12865;51.934;10.330;2024-02-16T07:11:14;98700.69;;;13.21;99.10
24762;BME280;12865;51.934;10.330;2024-02-16T07:14:00;98710.03;;;13.25;99.20
24762;BME280;12865;51.934;10.330;2024-02-16T07:16:47;98703.03;;;13.24;99.25
24762;BME280;12865;51.934;10.330;2024-02-16T07:19:33;98703.19;;;13.23;99.29
24762;BME280;12865;51.934;10.330;2024-02-16T07:22:19;98710.56;;;13.21;99.58
24762;BME280;12865;51.934;10.330;2024-02-16T07:25:04;98699.00;;;13.20;99.84
24762;BME280;12865;51.934;10.330;2024-02-16T07:27:50;98707.34;;;13.25;99.47
24762;BME280;12865;51.934;10.330;2024-02-16T07:30:38;98699.69;;;13.30;99.22
24762;BME280;12865;51.934;10.330;2024-02-16T07:33:23;98696.66;;;13.33;99.19
24762;BME280;12865;51.934;10.330;2024-02-16T07:36:10;98688.75;;;13.40;98.64
24762;BME280;12865;51.934;10.330;2024-02-16T07:38:55;98695.78;;;13.41;99.15
24762;BME280;12865;51.934;10.330;2024-02-16T07:41:41;98690.13;;;13.44;98.91
24762;BME280;12865;51.934;10.330;2024-02-16T07:44:28;98692.94;;;13.51;98.03
24762;BME280;12865;51.934;10.330;2024-02-16T07:47:13;98700.13;;;13.50;98.71
24762;BME280;12865;51.934;10.330;2024-02-16T07:49:59;98696.47;;;13.51;98.75
24762;BME280;12865;51.934;10.330;2024-02-16T07:52:45;98693.59;;;13.53;99.09
24762;BME280;12865;51.934;10.330;2024-02-16T07:55:31;98703.81;;;13.49;100.00
24762;BME280;12865;51.934;10.330;2024-02-16T07:58:16;98700.75;;;13.60;99.47
24762;BME280;12865;51.934;10.330;2024-02-16T08:01:02;98698.44;;;13.65;99.21
24762;BME280;12865;51.934;10.330;2024-02-16T08:03:48;98699.88;;;13.76;97.79
24762;BME280;12865;51.934;10.330;2024-02-16T08:06:34;98696.84;;;13.87;97.48
24762;BME280;12865;51.934;10.330;2024-02-16T08:09:19;98700.50;;;13.94;96.51
24762;BME280;12865;51.934;10.330;2024-02-16T08:12:05;98702.13;;;14.03;97.01
24762;BME280;12865;51.934;10.330;2024-02-16T08:14:52;98707.00;;;14.00;97.46
24762;BME280;12865;51.934;10.330;2024-02-16T08:17:39;98705.47;;;14.05;96.09
24762;BME280;12865;51.934;10.330;2024-02-16T08:20:24;98720.19;;;14.09;96.19
24762;BME280;12865;51.934;10.330;2024-02-16T08:23:11;98720.31;;;14.16;94.75
24762;BME280;12865;51.934;10.330;2024-02-16T08:25:57;98719.81;;;14.21;94.91
24762;BME280;12865;51.934;10.330;2024-02-16T08:28:46;98720.28;;;14.24;95.32
24762;BME280;12865;51.934;10.330;2024-02-16T08:31:32;98722.25;;;14.30;95.25
24762;BME280;12865;51.934;10.330;2024-02-16T08:34:18;98720.91;;;14.34;94.68
24762;BME280;12865;51.934;10.330;2024-02-16T08:37:04;98719.06;;;14.43;94.54
24762;BME280;12865;51.934;10.330;2024-02-16T08:39:50;98727.44;;;14.40;95.09
24762;BME280;12865;51.934;10.330;2024-02-16T08:42:36;98721.38;;;14.46;94.52
24762;BME280;12865;51.934;10.330;2024-02-16T08:45:22;98727.44;;;14.40;94.97
24762;BME280;12865;51.934;10.330;2024-02-16T08:48:07;98723.34;;;14.52;94.55
24762;BME280;12865;51.934;10.330;2024-02-16T08:50:53;98731.72;;;14.57;94.26
24762;BME280;12865;51.934;10.330;2024-02-16T08:53:39;98727.66;;;14.61;94.65
24762;BME280;12865;51.934;10.330;2024-02-16T08:56:24;98733.97;;;14.68;93.30
24762;BME280;12865;51.934;10.330;2024-02-16T08:59:10;98726.41;;;14.72;94.22
24762;BME280;12865;51.934;10.330;2024-02-16T09:01:56;98733.31;;;14.66;94.43
24762;BME280;12865;51.934;10.330;2024-02-16T09:04:42;98732.03;;;14.62;93.83
24762;BME280;12865;51.934;10.330;2024-02-16T09:07:27;98733.69;;;14.63;94.89
24762;BME280;12865;51.934;10.330;2024-02-16T09:10:13;98735.03;;;14.59;94.42
24762;BME280;12865;51.934;10.330;2024-02-16T09:12:59;98739.69;;;14.65;93.55
24762;BME280;12865;51.934;10.330;2024-02-16T09:15:45;98739.06;;;14.63;94.08
24762;BME280;12865;51.934;10.330;2024-02-16T09:18:33;98722.28;;;14.61;93.48
24762;BME280;12865;51.934;10.330;2024-02-16T09:21:19;98727.31;;;14.64;93.76
24762;BME280;12865;51.934;10.330;2024-02-16T09:24:05;98728.63;;;14.68;93.08
24762;BME280;12865;51.934;10.330;2024-02-16T09:26:57;98733.53;;;14.65;92.68
24762;BME280;12865;51.934;10.330;2024-02-16T09:29:43;98719.19;;;14.72;94.08
24762;BME280;12865;51.934;10.330;2024-02-16T09:32:30;98726.78;;;14.69;93.85
24762;BME280;12865;51.934;10.330;2024-02-16T09:35:15;98724.09;;;14.69;92.78
24762;BME280;12865;51.934;10.330;2024-02-16T09:38:02;98719.38;;;14.71;92.17
24762;BME280;12865;51.934;10.330;2024-02-16T09:40:50;98721.59;;;14.67;94.94
24762;BME280;12865;51.934;10.330;2024-02-16T09:43:36;98719.50;;;14.77;93.07
24762;BME280;12865;51.934;10.330;2024-02-16T09:46:23;98727.91;;;14.74;92.51
24762;BME280;12865;51.934;10.330;2024-02-16T09:49:09;98723.38;;;14.75;94.07
24762;BME280;12865;51.934;10.330;2024-02-16T09:51:56;98728.41;;;14.78;93.11
24762;BME280;12865;51.934;10.330;2024-02-16T09:54:45;98728.41;;;14.78;92.09
24762;BME280;12865;51.934;10.330;2024-02-16T09:57:30;98731.59;;;14.73;91.68
24762;BME280;12865;51.934;10.330;2024-02-16T10:00:16;98736.97;;;14.73;92.64
24762;BME280;12865;51.934;10.330;2024-02-16T10:03:02;98737.09;;;14.80;91.88
24762;BME280;12865;51.934;10.330;2024-02-16T10:05:50;98736.19;;;14.87;92.08
24762;BME280;12865;51.934;10.330;2024-02-16T10:08:53;98726.34;;;14.80;92.21
24762;BME280;12865;51.934;10.330;2024-02-16T10:11:44;98726.22;;;14.73;92.51
24762;BME280;12865;51.934;10.330;2024-02-16T10:14:30;98742.00;;;14.76;91.70
24762;BME280;12865;51.934;10.330;2024-02-16T10:17:17;98742.00;;;14.76;91.53
24762;BME280;12865;51.934;10.330;2024-02-16T10:20:03;98738.41;;;14.84;91.89
24762;BME280;12865;51.934;10.330;2024-02-16T10:25:49;98743.97;;;14.82;91.46
24762;BME280;12865;51.934;10.330;2024-02-16T10:28:35;98737.41;;;14.85;90.89
24762;BME280;12865;51.934;10.330;2024-02-16T10:31:22;98740.50;;;14.97;89.40
24762;BME280;12865;51.934;10.330;2024-02-16T10:34:14;98743.84;;;14.99;90.05
24762;BME280;12865;51.934;10.330;2024-02-16T10:37:03;98735.53;;;15.08;90.02
24762;BME280;12865;51.934;10.330;2024-02-16T10:39:49;98743.41;;;15.10;89.24
24762;BME280;12865;51.934;10.330;2024-02-16T10:42:37;98743.78;;;15.07;89.92
24762;BME280;12865;51.934;10.330;2024-02-16T10:45:23;98735.91;;;15.05;90.37
24762;BME280;12865;51.934;10.330;2024-02-16T10:48:10;98739.53;;;15.12;90.90
24762;BME280;12865;51.934;10.330;2024-02-16T10:50:56;98731.41;;;15.20;88.53
24762;BME280;12865;51.934;10.330;2024-02-16T10:53:44;98716.44;;;15.26;89.02
24762;BME280;12865;51.934;10.330;2024-02-16T10:56:35;98707.56;;;15.40;87.26
24762;BME280;12865;51.934;10.330;2024-02-16T10:59:21;98706.81;;;15.46;87.15
24762;BME280;12865;51.934;10.330;2024-02-16T11:02:06;98697.75;;;15.47;87.45
24762;BME280;12865;51.934;10.330;2024-02-16T11:04:52;98693.44;;;15.61;86.14
24762;BME280;12865;51.934;10.330;2024-02-16T11:07:38;98697.69;;;15.70;84.81
24762;BME280;12865;51.934;10.330;2024-02-16T11:10:24;98695.22;;;15.68;84.98
24762;BME280;12865;51.934;10.330;2024-02-16T11:13:10;98702.53;;;15.75;84.85
24762;BME280;12865;51.934;10.330;2024-02-16T11:16:03;98694.06;;;15.78;84.79
24762;BME280;12865;51.934;10.330;2024-02-16T11:18:50;98702.97;;;15.93;83.20
24762;BME280;12865;51.934;10.330;2024-02-16T11:21:36;98704.72;;;16.00;83.04
24762;BME280;12865;51.934;10.330;2024-02-16T11:24:29;98698.50;;;16.15;81.99
24762;BME280;12865;51.934;10.330;2024-02-16T11:27:16;98721.38;;;16.40;80.53
24762;BME280;12865;51.934;10.330;2024-02-16T11:30:05;98710.38;;;16.56;80.41
24762;BME280;12865;51.934;10.330;2024-02-16T11:32:51;98719.94;;;16.59;79.27
24762;BME280;12865;51.934;10.330;2024-02-16T11:35:37;98715.69;;;16.64;80.23
24762;BME280;12865;51.934;10.330;2024-02-16T11:38:24;98718.69;;;16.76;80.45
24762;BME280;12865;51.934;10.330;2024-02-16T11:41:10;98717.78;;;16.90;80.14
24762;BME280;12865;51.934;10.330;2024-02-16T11:44:00;98701.06;;;17.16;78.82
24762;BME280;12865;51.934;10.330;2024-02-16T11:46:46;98703.91;;;17.36;76.20
24762;BME280;12865;51.934;10.330;2024-02-16T11:49:32;98693.88;;;17.51;74.92
24762;BME280;12865;51.934;10.330;2024-02-16T11:52:19;98700.75;;;17.60;74.41
24762;BME280;12865;51.934;10.330;2024-02-16T11:55:07;98687.38;;;17.73;75.68
24762;BME280;12865;51.934;10.330;2024-02-16T11:57:53;98693.50;;;17.60;75.53
24762;BME280;12865;51.934;10.330;2024-02-16T12:00:41;98689.50;;;17.50;75.12
24762;BME280;12865;51.934;10.330;2024-02-16T12:03:27;98688.41;;;17.38;77.08
24762;BME280;12865;51.934;10.330;2024-02-16T12:06:20;98700.78;;;17.11;77.79
24762;BME280;12865;51.934;10.330;2024-02-16T12:09:09;98687.63;;;16.73;79.12
24762;BME280;12865;51.934;10.330;2024-02-16T12:11:55;98697.38;;;16.60;81.11
24762;BME280;12865;51.934;10.330;2024-02-16T12:14:41;98702.59;;;16.61;82.26
24762;BME280;12865;51.934;10.330;2024-02-16T12:17:26;98709.28;;;16.65;83.12
24762;BME280;12865;51.934;10.330;2024-02-16T12:20:12;98693.56;;;16.69;82.96
24762;BME280;12865;51.934;10.330;2024-02-16T12:23:10;98693.91;;;16.44;83.91
24762;BME280;12865;51.934;10.330;2024-02-16T12:26:00;98699.22;;;16.38;85.36
24762;BME280;12865;51.934;10.330;2024-02-16T12:28:47;98702.03;;;16.15;87.74
24762;BME280;12865;51.934;10.330;2024-02-16T12:31:33;98692.94;;;16.16;87.84
24762;BME280;12865;51.934;10.330;2024-02-16T12:34:23;98703.16;;;16.06;89.15
24762;BME280;12865;51.934;10.330;2024-02-16T12:37:08;98716.59;;;15.91;91.31
24762;BME280;12865;51.934;10.330;2024-02-16T12:39:56;98718.28;;;15.92;92.05
24762;BME280;12865;51.934;10.330;2024-02-16T12:42:42;98709.50;;;15.84;93.72
24762;BME280;12865;51.934;10.330;2024-02-16T12:45:28;98721.97;;;15.91;93.59
24762;BME280;12865;51.934;10.330;2024-02-16T12:48:14;98730.34;;;15.96;91.64
24762;BME280;12865;51.934;10.330;2024-02-16T12:51:00;98740.06;;;15.97;91.69
24762;BME280;12865;51.934;10.330;2024-02-16T12:53:45;98738.31;;;16.04;92.08
24762;BME280;12865;51.934;10.330;2024-02-16T12:56:31;98747.91;;;16.28;88.80
24762;BME280;12865;51.934;10.330;2024-02-16T12:59:17;98737.34;;;16.27;89.38
24762;BME280;12865;51.934;10.330;2024-02-16T13:02:03;98749.69;;;16.21;89.75
24762;BME280;12865;51.934;10.330;2024-02-16T13:04:48;98754.78;;;16.31;89.88
24762;BME280;12865;51.934;10.330;2024-02-16T13:07:34;98755.06;;;16.21;89.57
24762;BME280;12865;51.934;10.330;2024-02-16T13:10:20;98754.72;;;16.24;90.43
24762;BME280;12865;51.934;10.330;2024-02-16T13:13:06;98767.97;;;16.26;89.71
24762;BME280;12865;51.934;10.330;2024-02-16T13:15:51;98753.66;;;16.40;90.38
24762;BME280;12865;51.934;10.330;2024-02-16T13:18:37;98762.91;;;16.52;88.47
24762;BME280;12865;51.934;10.330;2024-02-16T13:21:23;98762.09;;;16.52;88.27
24762;BME280;12865;51.934;10.330;2024-02-16T13:24:08;98763.75;;;16.53;89.33
24762;BME280;12865;51.934;10.330;2024-02-16T13:26:54;98769.75;;;16.55;88.68
24762;BME280;12865;51.934;10.330;2024-02-16T13:29:41;98785.47;;;16.51;88.80
24762;BME280;12865;51.934;10.330;2024-02-16T13:32:27;98778.91;;;16.39;90.15
24762;BME280;12865;51.934;10.330;2024-02-16T13:35:13;98772.78;;;16.45;93.06
24762;BME280;12865;51.934;10.330;2024-02-16T13:37:59;98774.16;;;16.26;94.99
24762;BME280;12865;51.934;10.330;2024-02-16T13:40:44;98778.09;;;16.09;98.22
24762;BME280;12865;51.934;10.330;2024-02-16T13:43:30;98779.94;;;15.94;100.00
24762;BME280;12865;51.934;10.330;2024-02-16T13:46:16;98781.41;;;15.82;100.00
24762;BME280;12865;51.934;10.330;2024-02-16T13:49:02;98772.69;;;15.80;100.00
24762;BME280;12865;51.934;10.330;2024-02-16T13:51:49;98789.91;;;15.70;100.00
24762;BME280;12865;51.934;10.330;2024-02-16T13:54:35;98788.88;;;15.71;100.00
24762;BME280;12865;51.934;10.330;2024-02-16T13:57:21;98790.75;;;15.71;100.00
24762;BME280;12865;51.934;10.330;2024-02-16T14:00:07;98797.44;;;15.75;100.00
24762;BME280;12865;51.934;10.330;2024-02-16T14:02:53;98805.19;;;15.70;100.00
24762;BME280;12865;51.934;10.330;2024-02-16T14:05:40;98801.44;;;15.56;100.00
24762;BME280;12865;51.934;10.330;2024-02-16T14:08:27;98809.50;;;15.56;100.00
24762;BME280;12865;51.934;10.330;2024-02-16T14:11:12;98813.25;;;15.55;100.00
24762;BME280;12865;51.934;10.330;2024-02-16T14:13:58;98816.69;;;15.41;100.00
24762;BME280;12865;51.934;10.330;2024-02-16T14:16:44;98826.59;;;15.41;100.00
24762;BME280;12865;51.934;10.330;2024-02-16T14:19:30;98818.78;;;15.31;100.00
24762;BME280;12865;51.934;10.330;2024-02-16T14:22:16;98830.81;;;15.35;100.00
24762;BME280;12865;51.934;10.330;2024-02-16T14:25:01;98839.38;;;15.39;100.00
24762;BME280;12865;51.934;10.330;2024-02-16T14:27:48;98835.19;;;15.36;100.00
24762;BME280;12865;51.934;10.330;2024-02-16T14:30:34;98830.41;;;15.23;100.00